Time;durP1;ratioP1;P1;durP2;ratioP2;P2;SDS_P1;SDS_P2;PMS_P1;PMS_P2;Temp;Humidity;BMP_temperature;BMP_pressure;BME280_temperature;BME280_humidity;BME280_pressure;Samples;Min_cycle;Max_cycle;Signal;HPM_P1;HPM_P2
2022/03/13 00:01:35;;;;;;;;;;;;;;;27.53;56.96;98063.58;624799;227;65538;-74
2022/03/13 00:04:03;;;;;;;;;;;;;;;27.52;58.08;98064.66;624754;227;65494;-74
2022/03/13 00:06:39;;;;;;;;;;;;;;;27.53;57.38;98066.28;624729;227;65493;-74
2022/03/13 00:09:05;;;;;;;;;;;;;;;27.50;58.05;98072.27;624557;225;63004;-74
2022/03/13 00:11:33;;;;;;;;;;;;;;;27.49;55.43;98065.23;624744;227;65449;-74
2022/03/13 00:14:01;;;;;;;;;;;;;;;27.51;56.19;98064.96;624761;227;65282;-73
2022/03/13 00:16:29;;;;;;;;;;;;;;;27.49;56.50;98067.94;624811;227;62993;-73
2022/03/13 00:18:58;;;;;;;;;;;;;;;27.49;57.77;98054.44;624756;227;65491;-73
2022/03/13 00:21:26;;;;;;;;;;;;;;;27.48;55.17;98057.44;624755;227;63156;-73
2022/03/13 00:23:54;;;;;;;;;;;;;;;27.47;55.82;98056.61;624755;227;65298;-73
2022/03/13 00:26:22;;;;;;;;;;;;;;;27.45;58.50;98054.22;624801;227;65069;-73
2022/03/13 00:28:50;;;;;;;;;;;;;;;27.45;56.07;98058.82;624799;227;62897;-73
2022/03/13 00:31:17;;;;;;;;;;;;;;;27.44;55.56;98052.59;624756;224;62929;-73
2022/03/13 00:33:45;;;;;;;;;;;;;;;27.42;59.22;98054.00;624751;227;65707;-73
2022/03/13 00:36:12;;;;;;;;;;;;;;;27.41;55.77;98055.07;624726;227;64902;-73
2022/03/13 00:38:40;;;;;;;;;;;;;;;27.42;56.74;98054.00;624698;226;65691;-73
2022/03/13 00:41:09;;;;;;;;;;;;;;;27.40;56.16;98050.78;624813;227;62979;-73
2022/03/13 00:43:36;;;;;;;;;;;;;;;27.41;55.59;98036.17;624737;227;65030;-73
2022/03/13 00:46:04;;;;;;;;;;;;;;;27.39;57.53;98038.35;624749;227;65531;-73
2022/03/13 00:48:32;;;;;;;;;;;;;;;27.37;58.42;98041.36;624728;227;63023;-73
2022/03/13 00:51:00;;;;;;;;;;;;;;;27.35;57.06;98040.03;624758;227;65576;-73
2022/03/13 00:53:28;;;;;;;;;;;;;;;27.34;57.69;98044.64;624754;227;63066;-73
2022/03/13 00:55:55;;;;;;;;;;;;;;;27.34;56.40;98039.23;624771;227;65227;-73
2022/03/13 00:58:23;;;;;;;;;;;;;;;27.35;59.04;98040.03;624778;227;62959;-73
2022/03/13 01:00:51;;;;;;;;;;;;;;;27.33;58.76;98039.52;624752;227;66494;-73
2022/03/13 01:03:23;;;;;;;;;;;;;;;27.31;56.65;98034.42;624699;227;66648;-73
2022/03/13 01:05:50;;;;;;;;;;;;;;;27.31;58.80;98026.32;621476;225;65316;-75
2022/03/13 01:08:19;;;;;;;;;;;;;;;27.29;59.18;98028.50;624792;227;65103;-75
2022/03/13 01:10:49;;;;;;;;;;;;;;;27.28;59.27;98026.08;624746;227;65747;-74
2022/03/13 01:13:15;;;;;;;;;;;;;;;27.29;59.24;98022.30;624792;227;64939;-74
2022/03/13 01:15:45;;;;;;;;;;;;;;;27.27;58.45;98016.38;624725;227;62984;-74
2022/03/13 01:18:14;;;;;;;;;;;;;;;27.26;59.77;98022.88;624804;226;45776;-74
2022/03/13 01:20:43;;;;;;;;;;;;;;;27.22;58.91;98009.94;624782;225;65281;-74
2022/03/13 01:23:11;;;;;;;;;;;;;;;27.23;59.48;98010.77;624774;226;63035;-74
2022/03/13 01:25:39;;;;;;;;;;;;;;;27.21;59.64;98012.94;624719;227;65430;-74
2022/03/13 01:28:07;;;;;;;;;;;;;;;27.22;59.63;98011.84;624723;227;63043;-74
2022/03/13 01:30:34;;;;;;;;;;;;;;;27.19;57.88;98007.02;624747;227;64144;-74
2022/03/13 01:33:03;;;;;;;;;;;;;;;27.19;59.78;98010.52;624743;227;62989;-74
2022/03/13 01:35:30;;;;;;;;;;;;;;;27.17;58.29;98010.02;624799;227;65254;-74
2022/03/13 01:37:58;;;;;;;;;;;;;;;27.17;58.96;97999.23;624706;226;62659;-74
2022/03/13 01:40:26;;;;;;;;;;;;;;;27.17;58.77;98001.09;624777;227;63605;-74
2022/03/13 01:42:55;;;;;;;;;;;;;;;27.14;59.76;97999.75;624748;227;64828;-74
2022/03/13 01:45:24;;;;;;;;;;;;;;;27.14;59.92;97994.35;624694;227;65434;-74
2022/03/13 01:47:51;;;;;;;;;;;;;;;27.14;59.55;97997.05;624818;227;63194;-74
2022/03/13 01:50:19;;;;;;;;;;;;;;;27.13;59.14;97992.75;624694;227;62941;-74
2022/03/13 01:52:47;;;;;;;;;;;;;;;27.13;59.57;97998.16;624741;227;62862;-74
2022/03/13 01:55:16;;;;;;;;;;;;;;;27.12;59.13;97998.42;624719;227;65438;-74
2022/03/13 01:57:47;;;;;;;;;;;;;;;27.10;61.06;97998.73;624806;227;65015;-74
2022/03/13 02:00:13;;;;;;;;;;;;;;;27.09;59.77;97997.13;624721;226;63275;-74
2022/03/13 02:02:45;;;;;;;;;;;;;;;27.09;57.55;97997.13;624778;227;65586;-74
2022/03/13 02:05:31;;;;;;;;;;;;;;;27.08;59.77;97995.51;624743;227;63127;-74
2022/03/13 02:08:00;;;;;;;;;;;;;;;27.06;60.48;97996.88;624725;227;62935;-74
2022/03/13 02:10:29;;;;;;;;;;;;;;;27.05;60.13;98006.88;624759;225;41784;-72
2022/03/13 02:12:57;;;;;;;;;;;;;;;27.05;58.37;98003.38;624806;227;63040;-73
2022/03/13 02:15:26;;;;;;;;;;;;;;;27.04;58.40;98005.28;624750;227;65329;-73
2022/03/13 02:17:55;;;;;;;;;;;;;;;27.02;59.46;97996.66;624739;227;65918;-73
2022/03/13 02:20:24;;;;;;;;;;;;;;;27.03;59.84;98000.16;624755;227;65263;-73
2022/03/13 02:22:53;;;;;;;;;;;;;;;27.01;60.55;98003.16;624696;226;65144;-74
2022/03/13 02:25:22;;;;;;;;;;;;;;;27.00;59.55;98005.03;624790;227;63041;-74
2022/03/13 02:27:51;;;;;;;;;;;;;;;26.98;59.64;98004.53;624841;227;65543;-74
2022/03/13 02:30:20;;;;;;;;;;;;;;;26.98;60.70;98001.01;624768;227;65196;-73
2022/03/13 02:32:47;;;;;;;;;;;;;;;26.97;59.29;97999.41;624616;226;65517;-73
2022/03/13 02:35:16;;;;;;;;;;;;;;;26.96;59.46;97995.12;624744;227;65635;-73
2022/03/13 02:37:44;;;;;;;;;;;;;;;26.95;60.87;97996.98;624725;227;65326;-73
2022/03/13 02:40:16;;;;;;;;;;;;;;;26.94;59.39;97992.69;627015;226;65302;-73
2022/03/13 02:42:43;;;;;;;;;;;;;;;26.94;59.11;97989.20;626807;225;64117;-73
2022/03/13 02:45:11;;;;;;;;;;;;;;;26.94;59.98;97989.20;626965;226;63057;-73
2022/03/13 02:47:39;;;;;;;;;;;;;;;26.93;60.81;97987.60;626989;226;65450;-73
2022/03/13 02:50:06;;;;;;;;;;;;;;;26.92;60.16;97985.98;627058;226;64945;-73
2022/03/13 02:52:34;;;;;;;;;;;;;;;26.91;60.46;97989.77;627084;226;65137;-73
2022/03/13 02:55:01;;;;;;;;;;;;;;;26.89;60.25;97975.77;627045;226;62462;-73
2022/03/13 02:57:29;;;;;;;;;;;;;;;26.88;61.13;97980.36;627052;226;62766;-73
2022/03/13 02:59:56;;;;;;;;;;;;;;;26.88;60.17;97972.27;626973;226;63020;-73
2022/03/13 03:02:24;;;;;;;;;;;;;;;26.88;60.16;97966.08;627042;226;63096;-73
2022/03/13 03:04:54;;;;;;;;;;;;;;;26.87;59.97;97975.23;627073;226;65546;-73
2022/03/13 03:07:20;;;;;;;;;;;;;;;26.84;59.54;97973.12;627079;226;65316;-73
2022/03/13 03:09:48;;;;;;;;;;;;;;;26.82;59.85;97973.42;627035;226;62800;-73
2022/03/13 03:12:15;;;;;;;;;;;;;;;26.82;60.00;97969.89;627003;226;63569;-73
2022/03/13 03:14:43;;;;;;;;;;;;;;;26.80;58.86;97967.50;626987;226;65027;-73
2022/03/13 03:17:10;;;;;;;;;;;;;;;26.82;61.02;97968.03;627033;226;65468;-73
2022/03/13 03:19:38;;;;;;;;;;;;;;;26.80;61.28;97972.89;627065;226;65217;-73
2022/03/13 03:22:06;;;;;;;;;;;;;;;26.79;62.07;97966.70;627007;226;64224;-73
2022/03/13 03:24:34;;;;;;;;;;;;;;;26.78;60.09;97966.98;626975;226;63003;-73
2022/03/13 03:27:01;;;;;;;;;;;;;;;26.78;61.69;97966.98;627020;226;65435;-73
2022/03/13 03:29:30;;;;;;;;;;;;;;;26.76;61.02;97971.84;627003;226;65116;-73
2022/03/13 03:31:57;;;;;;;;;;;;;;;26.75;62.00;97962.95;627047;226;63481;-73
2022/03/13 03:34:26;;;;;;;;;;;;;;;26.74;61.46;97966.75;627034;226;65044;-73
2022/03/13 03:36:56;;;;;;;;;;;;;;;26.74;60.16;97963.26;627017;226;65342;-73
2022/03/13 03:39:24;;;;;;;;;;;;;;;26.72;58.08;97958.14;626923;226;63011;-72
2022/03/13 03:41:53;;;;;;;;;;;;;;;26.72;60.46;97960.84;627060;226;64880;-72
2022/03/13 03:44:21;;;;;;;;;;;;;;;26.71;61.91;97958.41;627025;226;65340;-73
2022/03/13 03:46:49;;;;;;;;;;;;;;;26.70;61.53;97952.22;626955;226;65479;-73
2022/03/13 03:49:17;;;;;;;;;;;;;;;26.69;62.09;97956.02;626958;226;65745;-73
2022/03/13 03:51:44;;;;;;;;;;;;;;;26.66;58.91;97945.01;626954;226;65355;-73
2022/03/13 03:54:14;;;;;;;;;;;;;;;26.67;61.66;97947.41;626971;226;65460;-73
2022/03/13 03:56:42;;;;;;;;;;;;;;;26.65;61.23;97949.58;626990;226;65105;-73
2022/03/13 03:59:09;;;;;;;;;;;;;;;26.64;61.11;97944.48;627035;226;63155;-73
2022/03/13 04:01:38;;;;;;;;;;;;;;;26.63;59.80;97946.38;626948;226;62994;-73
2022/03/13 04:04:07;;;;;;;;;;;;;;;26.63;61.81;97943.69;626978;226;65199;-73
2022/03/13 04:06:37;;;;;;;;;;;;;;;26.61;60.90;97942.36;626956;226;63067;-73
2022/03/13 04:09:05;;;;;;;;;;;;;;;26.61;59.57;97943.16;626977;226;62736;-73
2022/03/13 04:11:32;;;;;;;;;;;;;;;26.60;61.22;97944.27;627066;226;65229;-73
2022/03/13 04:14:00;;;;;;;;;;;;;;;26.58;61.27;97943.73;626974;226;66152;-73
2022/03/13 04:16:27;;;;;;;;;;;;;;;26.56;60.54;97941.31;626983;226;65711;-73
2022/03/13 04:18:55;;;;;;;;;;;;;;;26.57;60.36;97947.50;626972;226;64975;-73
2022/03/13 04:21:25;;;;;;;;;;;;;;;26.55;61.07;97941.61;627014;226;65675;-72
2022/03/13 04:23:53;;;;;;;;;;;;;;;26.55;61.62;97938.91;627047;226;65472;-72
2022/03/13 04:26:22;;;;;;;;;;;;;;;26.54;61.97;97935.39;626994;226;65029;-73
2022/03/13 04:28:50;;;;;;;;;;;;;;;26.54;60.43;97931.90;627020;226;65308;-73
2022/03/13 04:31:18;;;;;;;;;;;;;;;26.52;60.63;97939.48;627000;226;65519;-73
2022/03/13 04:33:48;;;;;;;;;;;;;;;26.50;60.92;97934.34;626990;226;65692;-73
2022/03/13 04:36:21;;;;;;;;;;;;;;;26.49;60.77;97938.13;627004;226;63184;-73
2022/03/13 04:38:44;;;;;;;;;;;;;;;26.48;61.48;97938.41;626801;225;63078;-72
2022/03/13 04:41:13;;;;;;;;;;;;;;;26.48;60.97;97939.20;627011;226;64997;-72
2022/03/13 04:43:42;;;;;;;;;;;;;;;26.47;61.55;97942.20;626989;226;62606;-72
2022/03/13 04:46:09;;;;;;;;;;;;;;;26.47;61.22;97942.20;626935;226;65530;-72
2022/03/13 04:48:37;;;;;;;;;;;;;;;26.45;62.42;97939.77;627055;226;65045;-73
2022/03/13 04:51:05;;;;;;;;;;;;;;;26.45;62.25;97949.77;627064;226;63074;-73
2022/03/13 04:53:32;;;;;;;;;;;;;;;26.44;62.01;97942.77;626881;226;63033;-72
2022/03/13 04:56:00;;;;;;;;;;;;;;;26.43;62.88;97947.33;627031;226;62659;-73
2022/03/13 04:58:27;;;;;;;;;;;;;;;26.41;62.27;97946.01;627012;226;63130;-72
2022/03/13 05:00:56;;;;;;;;;;;;;;;26.41;61.29;97943.31;626995;226;65948;-73
2022/03/13 05:03:23;;;;;;;;;;;;;;;26.39;62.32;97942.81;627076;226;65638;-72
2022/03/13 05:05:51;;;;;;;;;;;;;;;26.40;61.28;97947.11;627008;226;65404;-72
2022/03/13 05:08:18;;;;;;;;;;;;;;;26.37;63.21;97948.48;627014;226;63078;-73
2022/03/13 05:10:47;;;;;;;;;;;;;;;26.36;63.73;97946.88;627043;226;63787;-72
2022/03/13 05:13:16;;;;;;;;;;;;;;;26.37;62.25;97947.68;626976;226;65411;-72
2022/03/13 05:15:45;;;;;;;;;;;;;;;26.35;62.15;97948.78;627040;226;65355;-72
2022/03/13 05:18:13;;;;;;;;;;;;;;;26.33;61.01;97948.25;627057;226;65448;-72
2022/03/13 05:20:41;;;;;;;;;;;;;;;26.32;62.02;97946.62;627049;226;65411;-72
2022/03/13 05:23:09;;;;;;;;;;;;;;;26.33;62.06;97955.53;627029;226;65102;-72
2022/03/13 05:25:38;;;;;;;;;;;;;;;26.29;63.44;97957.97;627012;226;62975;-72
2022/03/13 05:28:08;;;;;;;;;;;;;;;26.30;62.25;97959.59;627013;226;65562;-72
2022/03/13 05:30:36;;;;;;;;;;;;;;;26.30;60.84;97959.59;627075;226;65757;-72
2022/03/13 05:33:04;;;;;;;;;;;;;;;26.29;60.57;97959.87;627024;226;64979;-72
2022/03/13 05:35:33;;;;;;;;;;;;;;;26.28;63.25;97959.07;626939;225;65394;-72
2022/03/13 05:38:01;;;;;;;;;;;;;;;26.27;64.17;97964.73;626678;226;65426;-73
2022/03/13 05:40:29;;;;;;;;;;;;;;;26.26;63.79;97958.55;624752;227;65184;-73
2022/03/13 05:42:59;;;;;;;;;;;;;;;26.28;63.59;97972.55;624782;227;65362;-73
2022/03/13 05:45:28;;;;;;;;;;;;;;;26.27;62.65;97970.95;624746;227;63001;-72
2022/03/13 05:47:57;;;;;;;;;;;;;;;26.28;63.91;97967.16;624740;227;65277;-72
2022/03/13 05:50:26;;;;;;;;;;;;;;;26.30;61.95;97956.91;624715;227;65391;-73
2022/03/13 05:52:56;;;;;;;;;;;;;;;26.30;62.12;97958.77;624694;227;65367;-72
2022/03/13 05:55:27;;;;;;;;;;;;;;;26.29;63.61;97957.17;624701;227;62949;-73
2022/03/13 05:57:56;;;;;;;;;;;;;;;26.31;61.70;97950.41;624770;227;65428;-72
2022/03/13 06:00:25;;;;;;;;;;;;;;;26.33;63.56;97956.33;624574;226;62780;-71
2022/03/13 06:02:53;;;;;;;;;;;;;;;26.32;62.54;97952.02;624747;227;65322;-72
2022/03/13 06:05:21;;;;;;;;;;;;;;;26.32;62.25;97954.70;624688;227;63219;-72
2022/03/13 06:07:50;;;;;;;;;;;;;;;26.34;62.76;97962.52;624712;227;65474;-72
2022/03/13 06:10:17;;;;;;;;;;;;;;;26.34;62.76;97963.32;624826;227;63511;-72
2022/03/13 06:12:45;;;;;;;;;;;;;;;26.36;62.41;97960.36;624706;227;66237;-73
2022/03/13 06:15:20;;;;;;;;;;;;;;;26.39;62.44;97964.38;624616;227;66112;-74
2022/03/13 06:17:48;;;;;;;;;;;;;;;26.41;62.11;97956.79;624684;224;63241;-74
2022/03/13 06:20:17;;;;;;;;;;;;;;;26.42;62.04;97959.22;624750;227;63055;-74
2022/03/13 06:22:46;;;;;;;;;;;;;;;26.47;61.55;97955.67;624431;225;65564;-74
2022/03/13 06:25:14;;;;;;;;;;;;;;;26.50;61.30;97947.02;624852;227;63202;-75
2022/03/13 06:27:44;;;;;;;;;;;;;;;26.53;60.20;97951.87;624579;225;46619;-74
2022/03/13 06:30:14;;;;;;;;;;;;;;;26.55;61.11;97945.11;624664;227;66411;-74
2022/03/13 06:32:42;;;;;;;;;;;;;;;26.59;61.80;97949.92;624752;227;65389;-74
2022/03/13 06:35:10;;;;;;;;;;;;;;;26.60;61.56;97946.95;624762;227;63049;-74
2022/03/13 06:37:38;;;;;;;;;;;;;;;26.63;61.38;97949.08;624812;227;64938;-74
2022/03/13 06:40:06;;;;;;;;;;;;;;;26.65;59.79;97946.88;624680;227;65213;-72
2022/03/13 06:42:34;;;;;;;;;;;;;;;26.68;60.64;97943.64;624590;227;65291;-74
2022/03/13 06:45:04;;;;;;;;;;;;;;;26.70;60.88;97938.73;624649;227;65551;-74
2022/03/13 06:47:31;;;;;;;;;;;;;;;26.75;61.51;97932.50;624717;227;65256;-73
2022/03/13 06:49:59;;;;;;;;;;;;;;;26.77;61.39;97936.52;624748;227;65342;-75
2022/03/13 06:52:26;;;;;;;;;;;;;;;26.80;61.40;97935.14;624682;227;63151;-74
2022/03/13 06:54:54;;;;;;;;;;;;;;;26.83;61.12;97936.47;624709;227;62969;-75
2022/03/13 06:57:22;;;;;;;;;;;;;;;26.85;60.25;97940.48;624716;227;66328;-73
2022/03/13 06:59:50;;;;;;;;;;;;;;;26.88;61.26;97937.20;624777;227;65106;-73
2022/03/13 07:02:17;;;;;;;;;;;;;;;26.90;60.94;97939.59;624818;227;64814;-73
2022/03/13 07:04:45;;;;;;;;;;;;;;;26.92;59.93;97938.22;624792;227;65184;-73
2022/03/13 07:07:12;;;;;;;;;;;;;;;26.95;60.37;97932.25;624684;227;65236;-73
2022/03/13 07:09:40;;;;;;;;;;;;;;;27.00;59.85;97939.48;624724;227;65086;-73
2022/03/13 07:12:12;;;;;;;;;;;;;;;27.01;59.82;97933.02;624772;227;62980;-73
2022/03/13 07:14:43;;;;;;;;;;;;;;;27.03;59.10;97938.91;624638;227;62841;-69
2022/03/13 07:17:11;;;;;;;;;;;;;;;27.03;59.36;97930.81;624702;227;65037;-69
2022/03/13 07:19:40;;;;;;;;;;;;;;;27.02;59.84;97931.92;624686;227;66246;-69
2022/03/13 07:22:10;;;;;;;;;;;;;;;27.03;60.57;97933.52;624362;227;62999;-69
2022/03/13 07:24:37;;;;;;;;;;;;;;;27.03;59.68;97932.72;624761;227;62858;-69
2022/03/13 07:27:05;;;;;;;;;;;;;;;27.04;60.53;97931.61;624715;227;65968;-69
2022/03/13 07:29:32;;;;;;;;;;;;;;;27.03;59.47;97936.21;624760;227;65461;-69
2022/03/13 07:32:00;;;;;;;;;;;;;;;27.03;59.28;97933.52;624737;227;65566;-69
2022/03/13 07:34:28;;;;;;;;;;;;;;;27.05;59.08;97933.23;624748;227;65522;-68
2022/03/13 07:36:55;;;;;;;;;;;;;;;27.05;59.07;97925.14;624688;227;63098;-68
2022/03/13 07:39:24;;;;;;;;;;;;;;;27.06;59.17;97929.44;624732;227;63028;-68
2022/03/13 07:41:54;;;;;;;;;;;;;;;27.06;56.27;97924.05;624796;227;65308;-68
2022/03/13 07:44:22;;;;;;;;;;;;;;;27.07;57.96;97923.77;624759;227;65670;-68
2022/03/13 07:46:51;;;;;;;;;;;;;;;27.07;57.57;97926.47;624749;227;65841;-68
2022/03/13 07:49:18;;;;;;;;;;;;;;;27.07;57.82;97921.06;624655;227;65471;-68
2022/03/13 07:51:47;;;;;;;;;;;;;;;27.07;57.60;97921.06;624770;227;65115;-68
2022/03/13 07:54:20;;;;;;;;;;;;;;;27.09;56.56;97921.59;624743;227;63048;-68
2022/03/13 07:56:47;;;;;;;;;;;;;;;27.08;57.00;97922.66;624723;227;64099;-68
2022/03/13 07:59:14;;;;;;;;;;;;;;;27.08;55.78;97919.17;624717;227;65818;-69
2022/03/13 08:01:42;;;;;;;;;;;;;;;27.10;57.08;97914.30;624744;227;63162;-68
2022/03/13 08:04:10;;;;;;;;;;;;;;;27.09;57.27;97918.06;624727;227;67090;-68
2022/03/13 08:06:39;;;;;;;;;;;;;;;27.09;56.49;97916.19;624774;227;65486;-68
2022/03/13 08:09:08;;;;;;;;;;;;;;;27.09;57.58;97909.97;624649;227;63204;-69
2022/03/13 08:11:36;;;;;;;;;;;;;;;27.09;57.10;97916.19;624701;227;65518;-69
2022/03/13 08:14:12;;;;;;;;;;;;;;;27.09;55.57;97910.80;624729;227;65951;-69
2022/03/13 08:16:35;;;;;;;;;;;;;;;27.09;56.33;97913.50;624507;225;65212;-68
2022/03/13 08:19:05;;;;;;;;;;;;;;;27.08;56.67;97906.47;624768;227;63103;-68
2022/03/13 08:21:32;;;;;;;;;;;;;;;27.07;56.37;97910.27;624726;227;65356;-68
2022/03/13 08:24:00;;;;;;;;;;;;;;;27.09;55.63;97907.27;624771;227;63091;-68
2022/03/13 08:26:30;;;;;;;;;;;;;;;27.09;56.29;97904.58;624748;227;63142;-68
2022/03/13 08:28:57;;;;;;;;;;;;;;;27.08;55.30;97905.68;624692;227;63229;-69
2022/03/13 08:31:24;;;;;;;;;;;;;;;27.08;55.11;97908.38;624670;227;62909;-68
2022/03/13 08:33:52;;;;;;;;;;;;;;;27.06;57.89;97905.16;624740;227;63226;-68
2022/03/13 08:36:20;;;;;;;;;;;;;;;27.06;53.39;97895.16;624693;227;65453;-68
2022/03/13 08:38:47;;;;;;;;;;;;;;;27.09;54.09;97900.01;625536;226;64909;-68
2022/03/13 08:41:15;;;;;;;;;;;;;;;27.11;54.99;97899.70;627024;226;65271;-67
2022/03/13 08:43:42;;;;;;;;;;;;;;;27.13;55.97;97905.62;626942;226;63411;-69
2022/03/13 08:46:12;;;;;;;;;;;;;;;27.04;55.57;97897.37;626767;226;63365;-69
2022/03/13 08:48:40;;;;;;;;;;;;;;;27.01;58.63;97906.05;626852;226;65513;-70
2022/03/13 08:51:11;;;;;;;;;;;;;;;26.96;58.56;97906.10;626844;226;65763;-67
2022/03/13 08:53:37;;;;;;;;;;;;;;;26.92;58.71;97915.84;626860;225;65147;-66
2022/03/13 08:56:05;;;;;;;;;;;;;;;26.97;54.30;97918.48;626816;226;65095;-66
2022/03/13 08:58:32;;;;;;;;;;;;;;;27.02;55.13;97918.43;626957;226;65554;-66
2022/03/13 09:01:00;;;;;;;;;;;;;;;27.03;54.62;97913.83;626912;226;65277;-66
2022/03/13 09:03:28;;;;;;;;;;;;;;;27.05;54.97;97908.95;627031;226;63190;-67
2022/03/13 09:05:56;;;;;;;;;;;;;;;27.07;54.83;97917.57;626786;226;65094;-67
2022/03/13 09:08:25;;;;;;;;;;;;;;;27.07;55.97;97904.87;626824;226;65707;-68
2022/03/13 09:10:53;;;;;;;;;;;;;;;27.07;56.08;97907.58;626973;226;65305;-65
2022/03/13 09:13:21;;;;;;;;;;;;;;;27.09;55.62;97908.09;626860;226;63406;-67
2022/03/13 09:15:49;;;;;;;;;;;;;;;27.09;55.27;97905.41;626923;226;63157;-66
2022/03/13 09:18:16;;;;;;;;;;;;;;;27.09;55.39;97905.41;626754;226;63204;-68
2022/03/13 09:20:44;;;;;;;;;;;;;;;27.10;56.30;97907.00;626948;226;63255;-69
2022/03/13 09:23:12;;;;;;;;;;;;;;;27.10;55.62;97906.20;627038;226;63004;-69
2022/03/13 09:25:41;;;;;;;;;;;;;;;27.10;55.56;97906.20;626975;225;45337;-67
2022/03/13 09:28:09;;;;;;;;;;;;;;;27.06;55.89;97908.65;626991;226;65458;-70
2022/03/13 09:30:38;;;;;;;;;;;;;;;27.08;54.22;97901.08;626075;226;62944;-70
2022/03/13 09:33:06;;;;;;;;;;;;;;;27.12;54.23;97903.99;626193;225;63297;-68
2022/03/13 09:35:34;;;;;;;;;;;;;;;27.14;53.89;97899.11;626951;226;63078;-69
2022/03/13 09:38:02;;;;;;;;;;;;;;;27.17;54.87;97893.16;626992;226;63156;-68
2022/03/13 09:40:29;;;;;;;;;;;;;;;27.19;54.35;97894.48;627022;226;65457;-70
2022/03/13 09:43:00;;;;;;;;;;;;;;;27.20;54.31;97893.41;627028;226;65372;-69
2022/03/13 09:45:26;;;;;;;;;;;;;;;27.25;54.39;97902.52;626929;225;65244;-70
2022/03/13 09:47:54;;;;;;;;;;;;;;;27.26;53.64;97896.05;627010;226;65384;-70
2022/03/13 09:50:22;;;;;;;;;;;;;;;27.27;54.02;97894.94;627034;226;65443;-70
2022/03/13 09:52:49;;;;;;;;;;;;;;;27.29;54.08;97893.55;627065;226;62624;-70
2022/03/13 09:55:17;;;;;;;;;;;;;;;27.31;54.81;97877.88;626991;226;63255;-69
2022/03/13 09:57:48;;;;;;;;;;;;;;;27.32;54.57;97886.77;626989;226;65461;-70
2022/03/13 10:00:16;;;;;;;;;;;;;;;27.35;54.09;97888.89;626930;225;65317;-69
2022/03/13 10:02:44;;;;;;;;;;;;;;;27.37;53.11;97870.52;626984;226;62947;-69
2022/03/13 10:05:13;;;;;;;;;;;;;;;27.37;54.91;97876.70;626968;226;63219;-69
2022/03/13 10:07:59;;;;;;;;;;;;;;;27.40;54.20;97873.42;626995;226;65073;-70
2022/03/13 10:10:34;;;;;;;;;;;;;;;27.41;53.61;97868.81;626944;226;63315;-68
2022/03/13 10:13:01;;;;;;;;;;;;;;;27.43;55.03;97869.34;626780;225;63070;-69
2022/03/13 10:15:31;;;;;;;;;;;;;;;27.43;56.08;97872.83;626971;226;62925;-69
2022/03/13 10:18:00;;;;;;;;;;;;;;;27.44;55.56;97868.23;626761;225;65133;-69
2022/03/13 10:20:28;;;;;;;;;;;;;;;27.45;54.02;97861.75;626720;225;63143;-69
2022/03/13 10:23:03;;;;;;;;;;;;;;;27.47;53.37;97864.94;626978;226;65044;-69
2022/03/13 10:25:38;;;;;;;;;;;;;;;27.51;53.64;97873.28;626918;226;65389;-69
2022/03/13 10:28:22;;;;;;;;;;;;;;;27.52;54.42;97870.27;626977;226;63468;-69
2022/03/13 10:30:57;;;;;;;;;;;;;;;27.54;53.54;97861.89;627027;226;63090;-69
2022/03/13 10:33:28;;;;;;;;;;;;;;;27.54;55.25;97859.98;626920;226;65301;-69
2022/03/13 10:36:17;;;;;;;;;;;;;;;27.55;54.25;97856.18;626999;226;65473;-69
2022/03/13 10:38:45;;;;;;;;;;;;;;;27.57;54.09;97861.30;626955;225;63205;-69
2022/03/13 10:41:13;;;;;;;;;;;;;;;27.59;54.85;97861.81;626919;226;66497;-69
2022/03/13 10:43:43;;;;;;;;;;;;;;;27.59;53.89;97859.91;626990;226;65622;-69
2022/03/13 10:46:15;;;;;;;;;;;;;;;27.60;53.19;97853.41;626989;226;65109;-71
2022/03/13 10:48:43;;;;;;;;;;;;;;;27.63;54.48;97857.41;626944;225;65417;-70
2022/03/13 10:51:14;;;;;;;;;;;;;;;27.62;53.90;97859.32;627012;226;63225;-70
2022/03/13 10:53:43;;;;;;;;;;;;;;;27.65;52.86;97853.33;626962;225;47484;-69
2022/03/13 10:56:14;;;;;;;;;;;;;;;27.67;53.54;97845.74;627017;226;65459;-69
2022/03/13 10:58:45;;;;;;;;;;;;;;;27.68;54.16;97850.03;627019;226;65723;-69
2022/03/13 11:01:22;;;;;;;;;;;;;;;27.69;54.25;97845.42;627020;226;63133;-69
2022/03/13 11:03:51;;;;;;;;;;;;;;;27.71;52.51;97845.15;626911;225;66243;-69
2022/03/13 11:06:19;;;;;;;;;;;;;;;27.73;54.35;97845.66;627074;226;64164;-69
2022/03/13 11:08:50;;;;;;;;;;;;;;;27.74;52.72;97847.25;627071;226;62693;-69
2022/03/13 11:11:18;;;;;;;;;;;;;;;27.75;53.88;97841.57;627010;226;65249;-69
2022/03/13 11:13:53;;;;;;;;;;;;;;;27.77;53.14;97843.95;626938;226;65066;-69
2022/03/13 11:16:27;;;;;;;;;;;;;;;27.79;52.85;97839.87;626976;226;65317;-70
2022/03/13 11:18:57;;;;;;;;;;;;;;;27.80;52.51;97836.12;626968;226;63275;-69
2022/03/13 11:21:27;;;;;;;;;;;;;;;27.83;53.35;97826.63;626787;226;65096;-69
2022/03/13 11:23:54;;;;;;;;;;;;;;;27.84;52.69;97829.01;626942;226;64898;-69
2022/03/13 11:26:23;;;;;;;;;;;;;;;27.87;52.39;97831.11;626976;226;65656;-70
2022/03/13 11:28:57;;;;;;;;;;;;;;;27.89;53.07;97825.43;626710;226;65134;-70
2022/03/13 11:31:28;;;;;;;;;;;;;;;27.92;52.37;97819.43;626895;225;65148;-68
2022/03/13 11:34:09;;;;;;;;;;;;;;;27.94;53.12;97811.84;627079;226;42539;-70
2022/03/13 11:36:37;;;;;;;;;;;;;;;27.95;52.92;97813.43;626918;225;65796;-68
2022/03/13 11:39:06;;;;;;;;;;;;;;;27.97;52.69;97816.64;625756;226;65306;-68
2022/03/13 11:41:37;;;;;;;;;;;;;;;27.99;52.63;97816.33;624469;225;46413;-70
2022/03/13 11:44:09;;;;;;;;;;;;;;;28.00;53.14;97812.55;624667;225;43537;-70
2022/03/13 11:46:43;;;;;;;;;;;;;;;28.02;52.79;97815.73;624547;227;62991;-69
2022/03/13 11:49:29;;;;;;;;;;;;;;;28.02;53.24;97819.26;624745;227;65524;-69
2022/03/13 11:52:13;;;;;;;;;;;;;;;28.05;52.45;97823.27;624807;227;63265;-70
2022/03/13 11:55:00;;;;;;;;;;;;;;;28.05;52.53;97815.95;624731;224;63110;-70
2022/03/13 11:57:30;;;;;;;;;;;;;;;28.07;52.30;97819.17;624806;226;47631;-69
2022/03/13 12:00:14;;;;;;;;;;;;;;;28.09;52.49;97814.25;624554;225;65661;-69
2022/03/13 12:02:46;;;;;;;;;;;;;;;28.11;52.21;97816.66;624873;227;38416;-68
2022/03/13 12:05:27;;;;;;;;;;;;;;;28.10;52.41;97813.16;624735;227;65526;-68
2022/03/13 12:07:57;;;;;;;;;;;;;;;28.14;52.56;97815.27;624719;227;65636;-69
2022/03/13 12:10:31;;;;;;;;;;;;;;;28.15;51.80;97816.86;624795;227;65486;-69
2022/03/13 12:13:09;;;;;;;;;;;;;;;28.16;51.93;97813.08;624708;227;63238;-69
2022/03/13 12:15:37;;;;;;;;;;;;;;;28.18;52.51;97813.55;624753;227;64071;-68
2022/03/13 12:18:32;;;;;;;;;;;;;;;28.20;52.59;97808.66;624736;227;65225;-68
2022/03/13 12:21:11;;;;;;;;;;;;;;;28.20;52.38;97808.66;624750;227;65799;-69
2022/03/13 12:23:39;;;;;;;;;;;;;;;28.20;51.47;97797.84;624759;227;63359;-69
2022/03/13 12:26:14;;;;;;;;;;;;;;;28.21;52.87;97796.73;624767;224;64972;-69
2022/03/13 12:28:41;;;;;;;;;;;;;;;28.22;52.94;97798.36;624691;227;63916;-69
2022/03/13 12:31:09;;;;;;;;;;;;;;;28.23;53.00;97791.84;624693;227;65417;-69
2022/03/13 12:33:38;;;;;;;;;;;;;;;28.24;52.12;97804.27;624760;227;65489;-69
2022/03/13 12:36:05;;;;;;;;;;;;;;;28.26;52.01;97802.05;624529;227;65263;-70
2022/03/13 12:38:34;;;;;;;;;;;;;;;28.27;52.36;97807.17;621043;226;64962;-70
2022/03/13 12:41:06;;;;;;;;;;;;;;;28.27;52.25;97803.67;615624;226;42326;-70
2022/03/13 12:43:38;;;;;;;;;;;;;;;28.28;52.90;97805.26;626074;226;65255;-70
2022/03/13 12:46:07;;;;;;;;;;;;;;;28.27;52.42;97801.77;624976;226;65537;-70
2022/03/13 12:48:37;;;;;;;;;;;;;;;28.30;52.77;97805.77;626182;226;65785;-70
2022/03/13 12:51:05;;;;;;;;;;;;;;;28.30;52.51;97800.36;626202;226;63154;-70
2022/03/13 12:53:34;;;;;;;;;;;;;;;28.30;52.99;97800.36;626133;226;62910;-70
2022/03/13 12:56:01;;;;;;;;;;;;;;;28.31;51.84;97808.16;626132;226;65256;-71
2022/03/13 12:58:45;;;;;;;;;;;;;;;28.32;52.63;97811.69;626072;226;63416;-70